Melder, Louisiana
Current Conditions -  °F | °C
As of 10:55 PM on Monday 22 Dec 2014 (Local Time) from KACP Reporting Station
Overcast Overcast  
Wind Chill: 66°   Ceiling: 2800
Heat Index: 66°   Visibility: 10mi
Dew Point: 61°   Wind: 9mph
Humidity: 85%   Direction: 220°SW
Pressure: 29.7"   Gusts: NA
Location:  30.9922°N, 92.6266°W
Report Text: KACP 230455Z AUTO 22008KT 10SM BKN028 OVC033 19/16 A2970 RMK AO2 T01870162 402410095
Loading
Personal Weather Stations






























Interactive Weather Map New forecast layout! Learn more

10-Day Weather Forecast

Advertisements
Track Severe Weather on mobile